sensor_id;sensor_type;location;lat;lon;timestamp;temperature;humidity
72126;SHT31;59999;51.676;22.650;2022-12-08T00:01:32;-0.02;88.66
72126;SHT31;59999;51.676;22.650;2022-12-08T00:04:01;0.00;88.72
72126;SHT31;59999;51.676;22.650;2022-12-08T00:06:30;0.04;88.62
72126;SHT31;59999;51.676;22.650;2022-12-08T00:09:38;0.04;88.56
72126;SHT31;59999;51.676;22.650;2022-12-08T00:12:12;0.00;88.54
72126;SHT31;59999;51.676;22.650;2022-12-08T00:14:43;-0.05;88.67
72126;SHT31;59999;51.676;22.650;2022-12-08T00:17:11;-0.05;88.60
72126;SHT31;59999;51.676;22.650;2022-12-08T00:19:38;-0.05;88.41
72126;SHT31;59999;51.676;22.650;2022-12-08T00:22:06;-0.07;88.43
72126;SHT31;59999;51.676;22.650;2022-12-08T00:24:36;-0.10;88.47
72126;SHT31;59999;51.676;22.650;2022-12-08T00:27:09;-0.10;88.44
72126;SHT31;59999;51.676;22.650;2022-12-08T00:29:35;-0.10;88.24
72126;SHT31;59999;51.676;22.650;2022-12-08T00:32:02;-0.11;88.13
72126;SHT31;59999;51.676;22.650;2022-12-08T00:34:29;-0.11;88.06
72126;SHT31;59999;51.676;22.650;2022-12-08T00:36:55;-0.14;88.10
72126;SHT31;59999;51.676;22.650;2022-12-08T00:39:21;-0.14;87.93
72126;SHT31;59999;51.676;22.650;2022-12-08T00:41:47;-0.21;87.90
72126;SHT31;59999;51.676;22.650;2022-12-08T00:44:32;-0.21;88.03
72126;SHT31;59999;51.676;22.650;2022-12-08T00:46:58;-0.27;88.11
72126;SHT31;59999;51.676;22.650;2022-12-08T00:49:24;-0.27;88.16
72126;SHT31;59999;51.676;22.650;2022-12-08T00:51:50;-0.33;88.29
72126;SHT31;59999;51.676;22.650;2022-12-08T00:54:16;-0.30;88.20
72126;SHT31;59999;51.676;22.650;2022-12-08T00:56:42;-0.34;88.34
72126;SHT31;59999;51.676;22.650;2022-12-08T00:59:08;-0.37;88.26
72126;SHT31;59999;51.676;22.650;2022-12-08T01:01:35;-0.34;88.53
72126;SHT31;59999;51.676;22.650;2022-12-08T01:04:08;-0.37;88.48
72126;SHT31;59999;51.676;22.650;2022-12-08T01:06:35;-0.36;88.65
72126;SHT31;59999;51.676;22.650;2022-12-08T01:09:04;-0.37;88.81
72126;SHT31;59999;51.676;22.650;2022-12-08T01:11:31;-0.37;89.18
72126;SHT31;59999;51.676;22.650;2022-12-08T01:13:57;-0.34;89.28
72126;SHT31;59999;51.676;22.650;2022-12-08T01:16:29;-0.31;89.36
72126;SHT31;59999;51.676;22.650;2022-12-08T01:18:57;-0.33;89.46
72126;SHT31;59999;51.676;22.650;2022-12-08T01:21:23;-0.30;89.51
72126;SHT31;59999;51.676;22.650;2022-12-08T01:23:49;-0.27;89.61
72126;SHT31;59999;51.676;22.650;2022-12-08T01:26:16;-0.26;89.52
72126;SHT31;59999;51.676;22.650;2022-12-08T01:28:45;-0.30;89.72
72126;SHT31;59999;51.676;22.650;2022-12-08T01:31:13;-0.31;89.62
72126;SHT31;59999;51.676;22.650;2022-12-08T01:33:40;-0.30;89.80
72126;SHT31;59999;51.676;22.650;2022-12-08T01:36:07;-0.30;89.93
72126;SHT31;59999;51.676;22.650;2022-12-08T01:38:34;-0.24;89.87
72126;SHT31;59999;51.676;22.650;2022-12-08T01:40:59;-0.26;89.68
72126;SHT31;59999;51.676;22.650;2022-12-08T01:43:55;-0.21;89.63
72126;SHT31;59999;51.676;22.650;2022-12-08T01:46:22;-0.14;89.58
72126;SHT31;59999;51.676;22.650;2022-12-08T01:49:01;-0.10;89.38
72126;SHT31;59999;51.676;22.650;2022-12-08T01:51:30;-0.09;89.26
72126;SHT31;59999;51.676;22.650;2022-12-08T01:53:57;-0.09;89.16
72126;SHT31;59999;51.676;22.650;2022-12-08T01:56:31;-0.06;89.06
72126;SHT31;59999;51.676;22.650;2022-12-08T01:59:01;-0.05;88.87
72126;SHT31;59999;51.676;22.650;2022-12-08T02:01:27;-0.05;88.71
72126;SHT31;59999;51.676;22.650;2022-12-08T02:03:58;0.03;88.62
72126;SHT31;59999;51.676;22.650;2022-12-08T02:06:29;0.05;88.44
72126;SHT31;59999;51.676;22.650;2022-12-08T02:08:57;0.11;88.22
72126;SHT31;59999;51.676;22.650;2022-12-08T02:11:24;0.08;88.10
72126;SHT31;59999;51.676;22.650;2022-12-08T02:13:50;0.10;88.17
72126;SHT31;59999;51.676;22.650;2022-12-08T02:39:14;0.28;87.56
72126;SHT31;59999;51.676;22.650;2022-12-08T02:42:01;0.22;87.83
72126;SHT31;59999;51.676;22.650;2022-12-08T02:44:36;0.17;87.84
72126;SHT31;59999;51.676;22.650;2022-12-08T02:47:08;0.21;87.70
72126;SHT31;59999;51.676;22.650;2022-12-08T02:49:35;0.19;87.60
72126;SHT31;59999;51.676;22.650;2022-12-08T02:55:02;0.29;87.55
72126;SHT31;59999;51.676;22.650;2022-12-08T02:57:50;0.26;87.74
72126;SHT31;59999;51.676;22.650;2022-12-08T03:00:19;0.34;87.50
72126;SHT31;59999;51.676;22.650;2022-12-08T03:02:59;0.40;87.36
72126;SHT31;59999;51.676;22.650;2022-12-08T03:05:45;0.46;87.41
72126;SHT31;59999;51.676;22.650;2022-12-08T03:11:21;0.51;87.08
72126;SHT31;59999;51.676;22.650;2022-12-08T03:13:56;0.49;87.46
72126;SHT31;59999;51.676;22.650;2022-12-08T03:16:26;0.45;87.44
72126;SHT31;59999;51.676;22.650;2022-12-08T03:19:00;0.49;87.52
72126;SHT31;59999;51.676;22.650;2022-12-08T03:21:28;0.55;87.44
72126;SHT31;59999;51.676;22.650;2022-12-08T03:23:56;0.51;87.44
72126;SHT31;59999;51.676;22.650;2022-12-08T03:29:35;0.48;87.41
72126;SHT31;59999;51.676;22.650;2022-12-08T03:32:23;0.45;87.61
72126;SHT31;59999;51.676;22.650;2022-12-08T03:34:51;0.42;87.59
72126;SHT31;59999;51.676;22.650;2022-12-08T03:37:17;0.40;87.68
72126;SHT31;59999;51.676;22.650;2022-12-08T03:39:45;0.41;87.73
72126;SHT31;59999;51.676;22.650;2022-12-08T03:42:11;0.40;87.84
72126;SHT31;59999;51.676;22.650;2022-12-08T03:44:37;0.40;87.77
72126;SHT31;59999;51.676;22.650;2022-12-08T03:47:03;0.38;87.66
72126;SHT31;59999;51.676;22.650;2022-12-08T03:49:29;0.38;87.50
72126;SHT31;59999;51.676;22.650;2022-12-08T03:51:55;0.42;87.33
72126;SHT31;59999;51.676;22.650;2022-12-08T03:54:21;0.37;87.37
72126;SHT31;59999;51.676;22.650;2022-12-08T03:56:47;0.37;87.37
72126;SHT31;59999;51.676;22.650;2022-12-08T03:59:13;0.31;87.59
72126;SHT31;59999;51.676;22.650;2022-12-08T04:01:39;0.26;87.57
72126;SHT31;59999;51.676;22.650;2022-12-08T04:04:05;0.26;87.58
72126;SHT31;59999;51.676;22.650;2022-12-08T04:06:31;0.25;87.52
72126;SHT31;59999;51.676;22.650;2022-12-08T04:08:58;0.21;87.66
72126;SHT31;59999;51.676;22.650;2022-12-08T04:11:24;0.19;87.67
72126;SHT31;59999;51.676;22.650;2022-12-08T04:13:50;0.18;87.67
72126;SHT31;59999;51.676;22.650;2022-12-08T04:16:18;0.15;87.75
72126;SHT31;59999;51.676;22.650;2022-12-08T04:18:45;0.17;87.68
72126;SHT31;59999;51.676;22.650;2022-12-08T04:21:11;0.08;87.75
72126;SHT31;59999;51.676;22.650;2022-12-08T04:23:38;0.11;87.77
72126;SHT31;59999;51.676;22.650;2022-12-08T04:26:04;0.13;87.73
72126;SHT31;59999;51.676;22.650;2022-12-08T04:28:31;0.13;87.69
72126;SHT31;59999;51.676;22.650;2022-12-08T04:30:57;0.07;87.86
72126;SHT31;59999;51.676;22.650;2022-12-08T04:33:23;0.07;87.89
72126;SHT31;59999;51.676;22.650;2022-12-08T04:35:49;0.03;87.96
72126;SHT31;59999;51.676;22.650;2022-12-08T04:38:15;-0.02;88.13
72126;SHT31;59999;51.676;22.650;2022-12-08T04:40:41;0.01;88.02
72126;SHT31;59999;51.676;22.650;2022-12-08T04:43:07;0.01;88.08
72126;SHT31;59999;51.676;22.650;2022-12-08T04:45:33;-0.03;88.20
72126;SHT31;59999;51.676;22.650;2022-12-08T04:48:00;-0.05;88.25
72126;SHT31;59999;51.676;22.650;2022-12-08T04:50:27;-0.06;88.21
72126;SHT31;59999;51.676;22.650;2022-12-08T04:52:53;-0.03;88.11
72126;SHT31;59999;51.676;22.650;2022-12-08T04:55:19;-0.02;88.03
72126;SHT31;59999;51.676;22.650;2022-12-08T04:57:45;-0.02;88.18
72126;SHT31;59999;51.676;22.650;2022-12-08T05:00:11;0.01;87.95
72126;SHT31;59999;51.676;22.650;2022-12-08T05:02:38;0.01;87.93
72126;SHT31;59999;51.676;22.650;2022-12-08T05:05:05;0.00;87.89
72126;SHT31;59999;51.676;22.650;2022-12-08T05:07:31;0.01;87.76
72126;SHT31;59999;51.676;22.650;2022-12-08T05:09:57;0.00;87.78
72126;SHT31;59999;51.676;22.650;2022-12-08T05:12:23;0.03;87.79
72126;SHT31;59999;51.676;22.650;2022-12-08T05:14:49;0.03;87.64
72126;SHT31;59999;51.676;22.650;2022-12-08T05:17:16;0.04;87.63
72126;SHT31;59999;51.676;22.650;2022-12-08T05:19:42;0.05;87.63
72126;SHT31;59999;51.676;22.650;2022-12-08T05:22:09;0.03;87.73
72126;SHT31;59999;51.676;22.650;2022-12-08T05:24:35;0.00;87.75
72126;SHT31;59999;51.676;22.650;2022-12-08T05:27:01;-0.02;87.84
72126;SHT31;59999;51.676;22.650;2022-12-08T05:29:27;0.03;87.61
72126;SHT31;59999;51.676;22.650;2022-12-08T05:31:53;0.00;87.50
72126;SHT31;59999;51.676;22.650;2022-12-08T05:34:19;0.01;87.45
72126;SHT31;59999;51.676;22.650;2022-12-08T05:36:45;0.01;87.44
72126;SHT31;59999;51.676;22.650;2022-12-08T05:39:12;0.03;87.30
72126;SHT31;59999;51.676;22.650;2022-12-08T05:41:39;0.04;87.16
72126;SHT31;59999;51.676;22.650;2022-12-08T05:44:05;0.01;87.19
72126;SHT31;59999;51.676;22.650;2022-12-08T05:46:32;0.00;87.28
72126;SHT31;59999;51.676;22.650;2022-12-08T05:48:59;-0.03;87.26
72126;SHT31;59999;51.676;22.650;2022-12-08T05:51:25;-0.03;87.25
72126;SHT31;59999;51.676;22.650;2022-12-08T05:53:52;-0.02;87.25
72126;SHT31;59999;51.676;22.650;2022-12-08T05:56:19;-0.06;87.25
72126;SHT31;59999;51.676;22.650;2022-12-08T05:58:45;-0.06;87.27
72126;SHT31;59999;51.676;22.650;2022-12-08T06:01:22;-0.10;87.21
72126;SHT31;59999;51.676;22.650;2022-12-08T06:03:49;-0.09;87.18
72126;SHT31;59999;51.676;22.650;2022-12-08T06:06:16;-0.05;87.09
72126;SHT31;59999;51.676;22.650;2022-12-08T06:08:42;-0.05;87.08
72126;SHT31;59999;51.676;22.650;2022-12-08T06:11:08;-0.03;86.97
72126;SHT31;59999;51.676;22.650;2022-12-08T06:13:34;-0.03;87.00
72126;SHT31;59999;51.676;22.650;2022-12-08T06:16:07;-0.03;87.03
72126;SHT31;59999;51.676;22.650;2022-12-08T06:18:33;-0.03;87.09
72126;SHT31;59999;51.676;22.650;2022-12-08T06:21:04;-0.02;87.03
72126;SHT31;59999;51.676;22.650;2022-12-08T06:23:30;0.01;86.95
72126;SHT31;59999;51.676;22.650;2022-12-08T06:26:01;0.01;86.94
72126;SHT31;59999;51.676;22.650;2022-12-08T06:28:29;0.03;86.93
72126;SHT31;59999;51.676;22.650;2022-12-08T06:30:56;-0.03;87.12
72126;SHT31;59999;51.676;22.650;2022-12-08T06:33:22;-0.06;87.34
72126;SHT31;59999;51.676;22.650;2022-12-08T06:35:48;-0.06;87.58
72126;SHT31;59999;51.676;22.650;2022-12-08T06:38:14;-0.03;87.51
72126;SHT31;59999;51.676;22.650;2022-12-08T06:40:40;-0.03;87.25
72126;SHT31;59999;51.676;22.650;2022-12-08T06:43:06;0.01;87.23
72126;SHT31;59999;51.676;22.650;2022-12-08T06:45:32;0.03;87.20
72126;SHT31;59999;51.676;22.650;2022-12-08T06:48:00;0.03;87.06
72126;SHT31;59999;51.676;22.650;2022-12-08T06:50:27;0.08;86.90
72126;SHT31;59999;51.676;22.650;2022-12-08T06:52:53;0.08;86.73
72126;SHT31;59999;51.676;22.650;2022-12-08T06:55:19;0.11;86.48
72126;SHT31;59999;51.676;22.650;2022-12-08T06:57:45;0.15;86.37
72126;SHT31;59999;51.676;22.650;2022-12-08T07:00:11;0.13;86.33
72126;SHT31;59999;51.676;22.650;2022-12-08T07:02:37;0.13;86.32
72126;SHT31;59999;51.676;22.650;2022-12-08T07:05:04;0.10;86.48
72126;SHT31;59999;51.676;22.650;2022-12-08T07:07:29;0.08;86.57
72126;SHT31;59999;51.676;22.650;2022-12-08T07:09:55;0.07;86.67
72126;SHT31;59999;51.676;22.650;2022-12-08T07:12:21;0.10;86.62
72126;SHT31;59999;51.676;22.650;2022-12-08T07:14:47;0.14;86.48
72126;SHT31;59999;51.676;22.650;2022-12-08T07:17:13;0.15;86.09
72126;SHT31;59999;51.676;22.650;2022-12-08T07:19:39;0.14;86.32
72126;SHT31;59999;51.676;22.650;2022-12-08T07:22:05;0.10;86.45
72126;SHT31;59999;51.676;22.650;2022-12-08T07:24:31;0.07;86.72
72126;SHT31;59999;51.676;22.650;2022-12-08T07:26:57;0.01;87.08
72126;SHT31;59999;51.676;22.650;2022-12-08T07:29:24;-0.03;87.29
72126;SHT31;59999;51.676;22.650;2022-12-08T07:31:49;-0.03;87.33
72126;SHT31;59999;51.676;22.650;2022-12-08T07:34:16;-0.09;87.45
72126;SHT31;59999;51.676;22.650;2022-12-08T07:36:41;-0.07;87.50
72126;SHT31;59999;51.676;22.650;2022-12-08T07:39:08;-0.10;87.56
72126;SHT31;59999;51.676;22.650;2022-12-08T07:41:34;-0.10;87.78
72126;SHT31;59999;51.676;22.650;2022-12-08T07:44:00;-0.07;87.98
72126;SHT31;59999;51.676;22.650;2022-12-08T07:46:26;0.00;88.09
72126;SHT31;59999;51.676;22.650;2022-12-08T07:48:53;0.07;88.01
72126;SHT31;59999;51.676;22.650;2022-12-08T07:51:19;0.15;88.06
72126;SHT31;59999;51.676;22.650;2022-12-08T07:53:47;0.21;88.06
72126;SHT31;59999;51.676;22.650;2022-12-08T07:56:14;0.32;87.71
72126;SHT31;59999;51.676;22.650;2022-12-08T07:58:40;0.44;87.84
72126;SHT31;59999;51.676;22.650;2022-12-08T08:01:18;0.51;87.51
72126;SHT31;59999;51.676;22.650;2022-12-08T08:03:44;0.61;87.24
72126;SHT31;59999;51.676;22.650;2022-12-08T08:06:10;0.66;87.08
72126;SHT31;59999;51.676;22.650;2022-12-08T08:08:36;0.70;86.83
72126;SHT31;59999;51.676;22.650;2022-12-08T08:11:05;0.82;86.43
72126;SHT31;59999;51.676;22.650;2022-12-08T08:13:31;0.86;86.27
72126;SHT31;59999;51.676;22.650;2022-12-08T08:16:08;0.91;86.29
72126;SHT31;59999;51.676;22.650;2022-12-08T08:18:35;1.00;85.82
72126;SHT31;59999;51.676;22.650;2022-12-08T08:21:02;1.04;85.76
72126;SHT31;59999;51.676;22.650;2022-12-08T08:23:29;1.10;85.43
72126;SHT31;59999;51.676;22.650;2022-12-08T08:25:58;1.11;85.37
72126;SHT31;59999;51.676;22.650;2022-12-08T08:28:26;1.19;84.87
72126;SHT31;59999;51.676;22.650;2022-12-08T08:30:52;1.27;84.34
72126;SHT31;59999;51.676;22.650;2022-12-08T08:33:18;1.32;84.25
72126;SHT31;59999;51.676;22.650;2022-12-08T08:35:44;1.37;84.07
72126;SHT31;59999;51.676;22.650;2022-12-08T08:38:10;1.40;84.04
72126;SHT31;59999;51.676;22.650;2022-12-08T08:40:35;1.42;84.30
72126;SHT31;59999;51.676;22.650;2022-12-08T08:43:02;1.41;84.05
72126;SHT31;59999;51.676;22.650;2022-12-08T08:45:29;1.40;84.04
72126;SHT31;59999;51.676;22.650;2022-12-08T08:47:55;1.34;84.53
72126;SHT31;59999;51.676;22.650;2022-12-08T08:50:21;1.28;85.01
72126;SHT31;59999;51.676;22.650;2022-12-08T08:52:47;1.34;85.11
72126;SHT31;59999;51.676;22.650;2022-12-08T08:55:13;1.40;84.74
72126;SHT31;59999;51.676;22.650;2022-12-08T08:57:39;1.51;84.75
72126;SHT31;59999;51.676;22.650;2022-12-08T09:00:06;1.58;84.44
72126;SHT31;59999;51.676;22.650;2022-12-08T09:02:36;1.68;84.33
72126;SHT31;59999;51.676;22.650;2022-12-08T09:05:02;1.78;84.35
72126;SHT31;59999;51.676;22.650;2022-12-08T09:07:29;1.85;84.14
72126;SHT31;59999;51.676;22.650;2022-12-08T09:09:56;1.93;83.80
72126;SHT31;59999;51.676;22.650;2022-12-08T09:12:22;1.97;83.89
72126;SHT31;59999;51.676;22.650;2022-12-08T09:14:48;2.05;84.34
72126;SHT31;59999;51.676;22.650;2022-12-08T09:17:14;2.21;83.70
72126;SHT31;59999;51.676;22.650;2022-12-08T09:19:40;2.26;83.52
72126;SHT31;59999;51.676;22.650;2022-12-08T09:22:06;2.36;83.66
72126;SHT31;59999;51.676;22.650;2022-12-08T09:24:32;2.37;83.22
72126;SHT31;59999;51.676;22.650;2022-12-08T09:26:58;2.40;82.74
72126;SHT31;59999;51.676;22.650;2022-12-08T09:29:24;2.31;82.76
72126;SHT31;59999;51.676;22.650;2022-12-08T09:31:51;2.23;83.00
72126;SHT31;59999;51.676;22.650;2022-12-08T09:34:19;2.16;83.45
72126;SHT31;59999;51.676;22.650;2022-12-08T09:36:45;2.11;83.77
72126;SHT31;59999;51.676;22.650;2022-12-08T09:39:10;2.05;83.71
72126;SHT31;59999;51.676;22.650;2022-12-08T09:41:43;2.06;83.68
72126;SHT31;59999;51.676;22.650;2022-12-08T09:46:44;1.97;84.34
72126;SHT31;59999;51.676;22.650;2022-12-08T09:49:14;1.95;84.61
72126;SHT31;59999;51.676;22.650;2022-12-08T09:51:43;2.00;84.76
72126;SHT31;59999;51.676;22.650;2022-12-08T09:54:33;2.06;84.85
72126;SHT31;59999;51.676;22.650;2022-12-08T09:57:12;2.10;84.67
72126;SHT31;59999;51.676;22.650;2022-12-08T09:59:44;2.16;84.64
72126;SHT31;59999;51.676;22.650;2022-12-08T10:02:23;2.24;84.23
72126;SHT31;59999;51.676;22.650;2022-12-08T10:04:50;2.31;84.19
72126;SHT31;59999;51.676;22.650;2022-12-08T10:07:37;2.40;84.10
72126;SHT31;59999;51.676;22.650;2022-12-08T10:13:24;2.51;83.86
72126;SHT31;59999;51.676;22.650;2022-12-08T10:16:04;2.52;84.11
72126;SHT31;59999;51.676;22.650;2022-12-08T10:18:33;2.62;84.22
72126;SHT31;59999;51.676;22.650;2022-12-08T10:21:15;2.65;83.35
72126;SHT31;59999;51.676;22.650;2022-12-08T10:23:49;2.72;83.62
72126;SHT31;59999;51.676;22.650;2022-12-08T10:26:18;2.89;84.24
72126;SHT31;59999;51.676;22.650;2022-12-08T10:28:45;3.12;83.05
72126;SHT31;59999;51.676;22.650;2022-12-08T10:31:22;3.27;82.96
72126;SHT31;59999;51.676;22.650;2022-12-08T10:33:56;3.31;81.77
72126;SHT31;59999;51.676;22.650;2022-12-08T10:36:43;3.22;81.85
72126;SHT31;59999;51.676;22.650;2022-12-08T10:39:40;3.19;82.20
72126;SHT31;59999;51.676;22.650;2022-12-08T10:47:25;3.02;82.88
72126;SHT31;59999;51.676;22.650;2022-12-08T10:50:27;3.06;83.21
72126;SHT31;59999;51.676;22.650;2022-12-08T10:53:02;3.13;83.36
72126;SHT31;59999;51.676;22.650;2022-12-08T10:55:45;3.22;82.53
72126;SHT31;59999;51.676;22.650;2022-12-08T10:58:31;3.28;82.85
72126;SHT31;59999;51.676;22.650;2022-12-08T11:08:57;3.31;83.25
72126;SHT31;59999;51.676;22.650;2022-12-08T11:12:00;3.34;83.26
72126;SHT31;59999;51.676;22.650;2022-12-08T11:14:57;3.28;82.87
72126;SHT31;59999;51.676;22.650;2022-12-08T11:17:37;3.28;83.39
72126;SHT31;59999;51.676;22.650;2022-12-08T11:22:43;3.51;83.41
72126;SHT31;59999;51.676;22.650;2022-12-08T11:25:21;3.58;82.31
72126;SHT31;59999;51.676;22.650;2022-12-08T11:27:51;3.57;82.55
72126;SHT31;59999;51.676;22.650;2022-12-08T11:30:19;3.70;82.94
72126;SHT31;59999;51.676;22.650;2022-12-08T11:32:53;3.71;82.69
72126;SHT31;59999;51.676;22.650;2022-12-08T11:35:26;3.68;82.01
72126;SHT31;59999;51.676;22.650;2022-12-08T11:37:57;3.63;82.34
72126;SHT31;59999;51.676;22.650;2022-12-08T11:40:33;3.57;82.89
72126;SHT31;59999;51.676;22.650;2022-12-08T11:43:17;3.53;82.92
72126;SHT31;59999;51.676;22.650;2022-12-08T11:45:51;3.48;82.91
72126;SHT31;59999;51.676;22.650;2022-12-08T11:52:14;3.34;83.34
72126;SHT31;59999;51.676;22.650;2022-12-08T11:54:26;3.37;83.16
72126;SHT31;59999;51.676;22.650;2022-12-08T11:56:55;3.26;83.00
72126;SHT31;59999;51.676;22.650;2022-12-08T11:59:28;3.20;83.41
72126;SHT31;59999;51.676;22.650;2022-12-08T12:01:56;3.07;83.44
72126;SHT31;59999;51.676;22.650;2022-12-08T12:18:02;3.03;83.77
72126;SHT31;59999;51.676;22.650;2022-12-08T12:23:27;3.05;83.76
72126;SHT31;59999;51.676;22.650;2022-12-08T12:26:00;3.07;83.45
72126;SHT31;59999;51.676;22.650;2022-12-08T12:28:43;3.06;83.63
72126;SHT31;59999;51.676;22.650;2022-12-08T12:31:17;2.99;83.47
72126;SHT31;59999;51.676;22.650;2022-12-08T12:33:46;2.93;83.60
72126;SHT31;59999;51.676;22.650;2022-12-08T12:36:13;2.84;83.95
72126;SHT31;59999;51.676;22.650;2022-12-08T12:38:45;2.79;84.02
72126;SHT31;59999;51.676;22.650;2022-12-08T12:41:46;2.69;84.36
72126;SHT31;59999;51.676;22.650;2022-12-08T12:47:00;2.57;84.64
72126;SHT31;59999;51.676;22.650;2022-12-08T12:54:34;2.42;86.33
72126;SHT31;59999;51.676;22.650;2022-12-08T13:02:28;2.49;85.87
72126;SHT31;59999;51.676;22.650;2022-12-08T13:07:41;2.45;85.87
72126;SHT31;59999;51.676;22.650;2022-12-08T13:10:20;2.45;85.88
72126;SHT31;59999;51.676;22.650;2022-12-08T13:13:03;2.38;85.80
72126;SHT31;59999;51.676;22.650;2022-12-08T13:18:00;2.30;85.69
72126;SHT31;59999;51.676;22.650;2022-12-08T13:20:27;2.24;85.68
72126;SHT31;59999;51.676;22.650;2022-12-08T13:28:22;2.17;85.73
72126;SHT31;59999;51.676;22.650;2022-12-08T13:30:53;2.11;85.72
72126;SHT31;59999;51.676;22.650;2022-12-08T13:33:40;2.07;85.57
72126;SHT31;59999;51.676;22.650;2022-12-08T13:36:32;2.00;85.60
72126;SHT31;59999;51.676;22.650;2022-12-08T13:39:00;1.93;85.77
72126;SHT31;59999;51.676;22.650;2022-12-08T13:41:46;1.89;85.87
72126;SHT31;59999;51.676;22.650;2022-12-08T13:44:22;1.83;85.94
72126;SHT31;59999;51.676;22.650;2022-12-08T13:46:51;1.78;86.14
72126;SHT31;59999;51.676;22.650;2022-12-08T13:49:25;1.76;86.32
72126;SHT31;59999;51.676;22.650;2022-12-08T13:51:53;1.76;86.34
72126;SHT31;59999;51.676;22.650;2022-12-08T13:54:30;1.73;86.35
72126;SHT31;59999;51.676;22.650;2022-12-08T13:56:59;1.76;86.31
72126;SHT31;59999;51.676;22.650;2022-12-08T13:59:29;1.75;86.42
72126;SHT31;59999;51.676;22.650;2022-12-08T14:02:25;1.78;86.40
72126;SHT31;59999;51.676;22.650;2022-12-08T14:04:54;1.79;86.46
72126;SHT31;59999;51.676;22.650;2022-12-08T14:07:21;1.80;86.41
72126;SHT31;59999;51.676;22.650;2022-12-08T14:09:47;1.79;86.28
72126;SHT31;59999;51.676;22.650;2022-12-08T14:12:25;1.73;86.47
72126;SHT31;59999;51.676;22.650;2022-12-08T14:15:12;1.79;86.51
72126;SHT31;59999;51.676;22.650;2022-12-08T14:17:40;1.76;86.41
72126;SHT31;59999;51.676;22.650;2022-12-08T14:20:24;1.80;86.19
72126;SHT31;59999;51.676;22.650;2022-12-08T14:22:51;1.86;85.96
72126;SHT31;59999;51.676;22.650;2022-12-08T14:25:19;1.86;85.88
72126;SHT31;59999;51.676;22.650;2022-12-08T14:27:46;1.86;85.81
72126;SHT31;59999;51.676;22.650;2022-12-08T14:32:59;1.86;85.89
72126;SHT31;59999;51.676;22.650;2022-12-08T14:35:28;1.83;85.89
72126;SHT31;59999;51.676;22.650;2022-12-08T14:37:56;1.83;85.77
72126;SHT31;59999;51.676;22.650;2022-12-08T14:40:32;1.83;85.76
72126;SHT31;59999;51.676;22.650;2022-12-08T14:53:41;1.90;84.80
72126;SHT31;59999;51.676;22.650;2022-12-08T14:59:11;1.89;84.62
72126;SHT31;59999;51.676;22.650;2022-12-08T15:01:38;1.89;84.59
72126;SHT31;59999;51.676;22.650;2022-12-08T15:07:14;1.82;84.80
72126;SHT31;59999;51.676;22.650;2022-12-08T15:09:43;1.75;84.95
72126;SHT31;59999;51.676;22.650;2022-12-08T15:14:41;1.63;85.24
72126;SHT31;59999;51.676;22.650;2022-12-08T15:19:57;1.65;85.16
72126;SHT31;59999;51.676;22.650;2022-12-08T15:22:23;1.63;85.12
72126;SHT31;59999;51.676;22.650;2022-12-08T15:24:52;1.59;85.24
72126;SHT31;59999;51.676;22.650;2022-12-08T15:27:20;1.61;85.16
72126;SHT31;59999;51.676;22.650;2022-12-08T15:29:47;1.54;85.47
72126;SHT31;59999;51.676;22.650;2022-12-08T15:32:22;1.48;85.49
72126;SHT31;59999;51.676;22.650;2022-12-08T15:34:48;1.44;85.62
72126;SHT31;59999;51.676;22.650;2022-12-08T15:37:20;1.37;85.77
72126;SHT31;59999;51.676;22.650;2022-12-08T15:39:46;1.34;86.05
72126;SHT31;59999;51.676;22.650;2022-12-08T15:42:13;1.27;86.15
72126;SHT31;59999;51.676;22.650;2022-12-08T15:44:39;1.27;86.36
72126;SHT31;59999;51.676;22.650;2022-12-08T15:47:18;1.23;86.41
72126;SHT31;59999;51.676;22.650;2022-12-08T15:49:46;1.21;86.53
72126;SHT31;59999;51.676;22.650;2022-12-08T15:52:17;1.19;86.66
72126;SHT31;59999;51.676;22.650;2022-12-08T15:54:44;1.19;86.60
72126;SHT31;59999;51.676;22.650;2022-12-08T15:57:22;1.14;86.86
72126;SHT31;59999;51.676;22.650;2022-12-08T15:59:49;1.13;86.90
72126;SHT31;59999;51.676;22.650;2022-12-08T16:02:16;1.14;86.99
72126;SHT31;59999;51.676;22.650;2022-12-08T16:04:42;1.11;87.06
72126;SHT31;59999;51.676;22.650;2022-12-08T16:07:20;1.10;87.06
72126;SHT31;59999;51.676;22.650;2022-12-08T16:09:46;1.08;87.29
72126;SHT31;59999;51.676;22.650;2022-12-08T16:12:18;1.05;87.30
72126;SHT31;59999;51.676;22.650;2022-12-08T16:15:03;1.11;87.23
72126;SHT31;59999;51.676;22.650;2022-12-08T16:17:30;1.10;87.15
72126;SHT31;59999;51.676;22.650;2022-12-08T16:19:56;1.10;87.15
72126;SHT31;59999;51.676;22.650;2022-12-08T16:22:25;1.14;87.05
72126;SHT31;59999;51.676;22.650;2022-12-08T16:24:51;1.14;87.11
72126;SHT31;59999;51.676;22.650;2022-12-08T16:27:38;1.13;87.15
72126;SHT31;59999;51.676;22.650;2022-12-08T16:30:07;1.10;87.15
72126;SHT31;59999;51.676;22.650;2022-12-08T16:32:34;1.11;87.17
72126;SHT31;59999;51.676;22.650;2022-12-08T16:34:59;1.13;87.28
72126;SHT31;59999;51.676;22.650;2022-12-08T16:37:26;1.13;87.31
72126;SHT31;59999;51.676;22.650;2022-12-08T16:39:54;1.11;87.33
72126;SHT31;59999;51.676;22.650;2022-12-08T16:42:24;1.13;87.34
72126;SHT31;59999;51.676;22.650;2022-12-08T16:47:54;1.16;87.14
72126;SHT31;59999;51.676;22.650;2022-12-08T16:50:26;1.17;86.97
72126;SHT31;59999;51.676;22.650;2022-12-08T16:55:23;1.13;86.83
72126;SHT31;59999;51.676;22.650;2022-12-08T16:57:49;1.07;86.70
72126;SHT31;59999;51.676;22.650;2022-12-08T17:00:20;1.01;86.84
72126;SHT31;59999;51.676;22.650;2022-12-08T17:02:47;0.99;86.82
72126;SHT31;59999;51.676;22.650;2022-12-08T17:05:14;0.94;86.92
72126;SHT31;59999;51.676;22.650;2022-12-08T17:07:42;0.90;86.96
72126;SHT31;59999;51.676;22.650;2022-12-08T17:10:12;0.89;86.94
72126;SHT31;59999;51.676;22.650;2022-12-08T17:12:39;0.86;86.94
72126;SHT31;59999;51.676;22.650;2022-12-08T17:15:08;0.82;86.94
72126;SHT31;59999;51.676;22.650;2022-12-08T17:17:35;0.79;86.95
72126;SHT31;59999;51.676;22.650;2022-12-08T17:20:08;0.75;86.96
72126;SHT31;59999;51.676;22.650;2022-12-08T17:22:35;0.72;86.81
72126;SHT31;59999;51.676;22.650;2022-12-08T17:25:01;0.68;86.90
72126;SHT31;59999;51.676;22.650;2022-12-08T17:27:27;0.62;86.82
72126;SHT31;59999;51.676;22.650;2022-12-08T17:29:53;0.56;86.88
72126;SHT31;59999;51.676;22.650;2022-12-08T17:32:19;0.53;87.17
72126;SHT31;59999;51.676;22.650;2022-12-08T17:34:46;0.53;87.36
72126;SHT31;59999;51.676;22.650;2022-12-08T17:37:12;0.55;87.39
72126;SHT31;59999;51.676;22.650;2022-12-08T17:39:38;0.49;87.30
72126;SHT31;59999;51.676;22.650;2022-12-08T17:42:05;0.46;87.36
72126;SHT31;59999;51.676;22.650;2022-12-08T17:44:31;0.46;87.42
72126;SHT31;59999;51.676;22.650;2022-12-08T17:46:59;0.44;87.44
72126;SHT31;59999;51.676;22.650;2022-12-08T17:49:26;0.40;87.62
72126;SHT31;59999;51.676;22.650;2022-12-08T17:51:57;0.37;87.55